Time;durP1;ratioP1;P1;durP2;ratioP2;P2;SDS_P1;SDS_P2;PMS_P1;PMS_P2;Temp;Humidity;BMP_temperature;BMP_pressure;BME280_temperature;BME280_humidity;BME280_pressure;Samples;Min_cycle;Max_cycle;Signal;HPM_P1;HPM_P2
2023/11/21 00:01:04;;;;;;;2.38;2.00;;;18.40;65.60;;;;;;5073764;28;20056;-36
2023/11/21 00:03:30;;;;;;;2.20;1.80;;;18.40;65.60;;;;;;5077529;28;20029;-36
2023/11/21 00:05:57;;;;;;;2.47;1.92;;;18.40;65.60;;;;;;5065580;28;21554;-36
2023/11/21 00:08:23;;;;;;;2.10;1.90;;;18.40;65.40;;;;;;5078301;28;20023;-36
2023/11/21 00:10:49;;;;;;;2.20;1.85;;;18.40;65.30;;;;;;5082862;28;20048;-36
2023/11/21 00:13:15;;;;;;;1.88;1.77;;;18.40;65.20;;;;;;5089853;28;20024;-35
2023/11/21 00:15:41;;;;;;;2.15;1.95;;;18.40;65.30;;;;;;5092300;28;20043;-36
2023/11/21 00:18:07;;;;;;;2.10;1.85;;;18.40;65.30;;;;;;5076766;28;20085;-36
2023/11/21 00:20:33;;;;;;;2.08;1.75;;;18.30;65.20;;;;;;5083108;28;20039;-35
2023/11/21 00:23:00;;;;;;;2.25;1.90;;;18.40;65.30;;;;;;5083017;28;20104;-36
2023/11/21 00:25:26;;;;;;;2.15;1.85;;;18.40;65.30;;;;;;5083519;28;20024;-35
2023/11/21 00:27:52;;;;;;;2.50;1.90;;;18.40;65.20;;;;;;5075040;28;20028;-36
2023/11/21 00:30:20;;;;;;;2.00;1.80;;;18.30;65.20;;;;;;5078458;28;20045;-36
2023/11/21 00:32:46;;;;;;;1.98;1.83;;;18.30;65.20;;;;;;5073700;28;20150;-36
2023/11/21 00:35:12;;;;;;;2.10;1.90;;;18.30;65.10;;;;;;5082863;28;20032;-36
2023/11/21 00:37:38;;;;;;;1.90;1.70;;;18.30;65.00;;;;;;5089294;28;20434;-36
2023/11/21 00:40:06;;;;;;;2.30;1.92;;;18.30;65.00;;;;;;5079729;28;20055;-35
2023/11/21 00:42:35;;;;;;;;;;;18.30;65.00;;;;;;5072731;28;20029;-36
2023/11/21 00:45:01;;;;;;;2.05;1.85;;;18.30;65.10;;;;;;5084216;28;19952;-36
2023/11/21 00:47:27;;;;;;;2.00;1.80;;;18.30;65.00;;;;;;5066806;28;20028;-36
2023/11/21 00:49:53;;;;;;;2.42;1.90;;;18.30;65.00;;;;;;5081048;28;20119;-36
2023/11/21 00:52:19;;;;;;;2.72;2.00;;;18.30;65.10;;;;;;5082845;28;20047;-36
2023/11/21 00:54:46;;;;;;;2.17;1.90;;;18.30;65.00;;;;;;5082136;28;20028;-35
2023/11/21 00:57:12;;;;;;;2.63;2.07;;;18.30;65.10;;;;;;5077674;28;20032;-36
2023/11/21 00:59:38;;;;;;;2.10;1.80;;;18.30;65.00;;;;;;5078746;28;20024;-36
2023/11/21 01:02:04;;;;;;;1.88;1.67;;;18.30;65.00;;;;;;5081414;28;20036;-36
2023/11/21 01:04:32;;;;;;;2.63;2.08;;;18.30;65.00;;;;;;5081834;28;20032;-35
2023/11/21 01:06:58;;;;;;;2.15;1.95;;;18.30;65.00;;;;;;5081450;28;20117;-36
2023/11/21 01:09:25;;;;;;;2.30;2.10;;;18.30;65.00;;;;;;5081389;28;20033;-37
2023/11/21 01:11:52;;;;;;;2.22;1.90;;;18.30;65.00;;;;;;5080948;28;20072;-36
2023/11/21 01:14:18;;;;;;;1.88;1.67;;;18.30;65.00;;;;;;5085503;28;20054;-36
2023/11/21 01:16:44;;;;;;;2.45;1.88;;;18.30;65.00;;;;;;5083756;28;20033;-35
2023/11/21 01:19:10;;;;;;;1.70;1.58;;;18.30;65.00;;;;;;5067318;28;20032;-36
2023/11/21 01:21:36;;;;;;;1.80;1.70;;;18.30;65.00;;;;;;5073143;28;20033;-36
2023/11/21 01:24:03;;;;;;;1.90;1.65;;;18.30;65.00;;;;;;5075459;28;20444;-36
2023/11/21 01:26:29;;;;;;;2.05;1.77;;;18.30;65.00;;;;;;5077763;28;20063;-36
2023/11/21 01:28:55;;;;;;;1.90;1.70;;;18.30;65.00;;;;;;5073264;28;20088;-36
2023/11/21 01:31:21;;;;;;;2.33;1.75;;;18.30;65.00;;;;;;5072448;28;20493;-36
2023/11/21 01:33:48;;;;;;;3.35;1.83;;;18.30;65.00;;;;;;5072785;28;20029;-36
2023/11/21 01:36:15;;;;;;;2.05;1.85;;;18.20;64.90;;;;;;5075513;28;20042;-36
2023/11/21 01:38:41;;;;;;;2.15;1.95;;;18.30;65.00;;;;;;5085402;28;20032;-36
2023/11/21 01:41:11;;;;;;;1.92;1.73;;;18.30;65.00;;;;;;5079028;28;20036;-36
2023/11/21 01:43:38;;;;;;;2.83;1.95;;;18.30;65.00;;;;;;5086017;28;20052;-36
2023/11/21 01:46:06;;;;;;;2.55;1.90;;;18.20;64.90;;;;;;5088318;28;20041;-36
2023/11/21 01:48:33;;;;;;;2.20;1.90;;;18.30;65.00;;;;;;5079096;28;20029;-36
2023/11/21 01:51:02;;;;;;;2.30;1.73;;;18.30;65.00;;;;;;5086221;28;20033;-36
2023/11/21 01:53:30;;;;;;;2.25;1.73;;;18.20;64.90;;;;;;5077974;28;20064;-36
2023/11/21 01:55:59;;;;;;;1.77;1.63;;;18.30;65.00;;;;;;5065440;28;20051;-36
2023/11/21 01:58:32;;;;;;;2.42;2.17;;;18.30;65.00;;;;;;5081012;28;20028;-36
2023/11/21 02:01:01;;;;;;;2.72;1.95;;;18.20;64.90;;;;;;5077961;28;20086;-37
2023/11/21 02:03:33;;;;;;;2.35;2.05;;;18.20;64.90;;;;;;5085006;28;20052;-36
2023/11/21 02:06:00;;;;;;;;;;;18.20;64.90;;;;;;5079245;28;20043;-36
2023/11/21 02:08:27;;;;;;;2.20;1.85;;;18.20;64.90;;;;;;5078540;28;19921;-40
2023/11/21 02:10:54;;;;;;;1.73;1.63;;;18.20;65.00;;;;;;5083182;28;20552;-36
2023/11/21 02:13:22;;;;;;;1.73;1.52;;;18.20;65.00;;;;;;5085906;28;20092;-36
2023/11/21 02:15:52;;;;;;;2.10;1.67;;;18.20;64.90;;;;;;5092478;28;20036;-36
2023/11/21 02:18:18;;;;;;;1.90;1.70;;;18.20;65.00;;;;;;5084785;28;20730;-36
2023/11/21 02:20:47;;;;;;;1.92;1.73;;;18.20;64.90;;;;;;5077452;28;20096;-36
2023/11/21 02:23:17;;;;;;;2.33;2.10;;;18.20;65.00;;;;;;5079737;28;20025;-36
2023/11/21 02:25:45;;;;;;;1.80;1.60;;;18.20;65.00;;;;;;5077748;28;20028;-35
2023/11/21 02:28:15;;;;;;;;;;;18.20;65.00;;;;;;5077762;28;20107;-35
2023/11/21 02:30:43;;;;;;;2.10;1.85;;;18.20;65.00;;;;;;5082457;28;19917;-35
2023/11/21 02:33:12;;;;;;;2.10;1.88;;;18.20;65.00;;;;;;5077233;28;20038;-35
2023/11/21 02:35:39;;;;;;;1.80;1.60;;;18.20;65.10;;;;;;5078568;28;20025;-36
2023/11/21 02:38:07;;;;;;;2.10;1.80;;;18.20;65.00;;;;;;5077038;28;20033;-35
2023/11/21 02:40:34;;;;;;;2.35;1.90;;;18.20;65.00;;;;;;5077959;28;20032;-35
2023/11/21 02:43:00;;;;;;;;;;;18.20;65.10;;;;;;5077141;28;20155;-35
2023/11/21 02:45:26;;;;;;;2.90;2.00;;;18.20;65.00;;;;;;5090354;28;20398;-35
2023/11/21 02:47:56;;;;;;;2.03;1.80;;;18.20;65.00;;;;;;5084595;28;20063;-36
2023/11/21 02:50:24;;;;;;;2.08;1.77;;;18.20;65.10;;;;;;5084164;28;20045;-36
2023/11/21 02:52:50;;;;;;;2.20;1.75;;;18.20;65.10;;;;;;5083445;28;20020;-35
2023/11/21 02:55:18;;;;;;;1.75;1.60;;;18.20;65.10;;;;;;5084579;28;20040;-36
2023/11/21 02:57:45;;;;;;;1.90;1.38;;;18.20;65.20;;;;;;5084329;28;20064;-35
2023/11/21 03:00:15;;;;;;;1.83;1.70;;;18.20;65.20;;;;;;5083611;28;20035;-36
2023/11/21 03:02:43;;;;;;;2.50;1.95;;;18.20;65.20;;;;;;5084054;28;20059;-36
2023/11/21 03:05:10;;;;;;;1.60;1.50;;;18.20;65.20;;;;;;5084844;28;20025;-39
2023/11/21 03:07:38;;;;;;;2.05;1.85;;;18.20;65.20;;;;;;5079180;28;20037;-35
2023/11/21 03:10:06;;;;;;;1.98;1.77;;;18.20;65.20;;;;;;5083877;28;20060;-36
2023/11/21 03:12:33;;;;;;;1.65;1.55;;;18.20;65.20;;;;;;5077418;28;20504;-35
2023/11/21 03:15:02;;;;;;;2.10;1.60;;;18.10;65.20;;;;;;5088681;28;20036;-35
2023/11/21 03:17:29;;;;;;;2.00;1.80;;;18.20;65.30;;;;;;5083372;28;20036;-36
2023/11/21 03:19:57;;;;;;;2.08;1.80;;;18.20;65.30;;;;;;5085090;28;20028;-36
2023/11/21 03:22:23;;;;;;;1.92;1.60;;;18.20;65.30;;;;;;5078454;28;20032;-36
2023/11/21 03:24:50;;;;;;;2.07;1.80;;;18.20;65.30;;;;;;5083485;28;20028;-36
2023/11/21 03:27:17;;;;;;;3.00;1.85;;;18.20;65.40;;;;;;5083882;28;20036;-36
2023/11/21 03:29:44;;;;;;;1.70;1.60;;;18.20;65.40;;;;;;5082561;28;20029;-36
2023/11/21 03:32:11;;;;;;;2.53;1.70;;;18.20;65.40;;;;;;5077159;28;20061;-36
2023/11/21 03:34:53;;;;;;;1.75;1.40;;;18.20;65.40;;;;;;5084049;28;20044;-35
2023/11/21 03:37:20;;;;;;;2.15;1.90;;;18.20;65.40;;;;;;5069458;28;20040;-36
2023/11/21 03:39:47;;;;;;;2.08;1.88;;;18.20;65.40;;;;;;5076379;28;20046;-35
2023/11/21 03:42:13;;;;;;;2.00;1.55;;;18.20;65.40;;;;;;5076866;28;20040;-36
2023/11/21 03:44:39;;;;;;;1.60;1.50;;;18.20;65.50;;;;;;5073478;28;20068;-36
2023/11/21 03:47:05;;;;;;;2.40;1.85;;;18.20;65.50;;;;;;5081984;28;20032;-35
2023/11/21 03:49:31;;;;;;;1.95;1.75;;;18.20;65.60;;;;;;5083081;28;20029;-36
2023/11/21 03:51:57;;;;;;;1.73;1.55;;;18.20;65.50;;;;;;5082632;28;21925;-36
2023/11/21 03:54:23;;;;;;;2.25;1.80;;;18.20;65.50;;;;;;5078381;28;20044;-36
2023/11/21 03:56:50;;;;;;;1.88;1.48;;;18.20;65.60;;;;;;5081478;28;20032;-36
2023/11/21 03:59:16;;;;;;;1.45;1.33;;;18.20;65.60;;;;;;5083380;28;20035;-36
2023/11/21 04:01:42;;;;;;;2.13;1.65;;;18.20;65.60;;;;;;5082298;28;20051;-35
2023/11/21 04:04:08;;;;;;;1.92;1.67;;;18.20;65.70;;;;;;5080461;28;20054;-35
2023/11/21 04:06:35;;;;;;;1.60;1.50;;;18.20;65.70;;;;;;5080115;28;20033;-35
2023/11/21 04:09:04;;;;;;;1.75;1.65;;;18.20;65.70;;;;;;5082796;28;20035;-36
2023/11/21 04:11:30;;;;;;;2.58;1.67;;;18.20;65.70;;;;;;5075980;28;20913;-35
2023/11/21 04:13:56;;;;;;;3.63;1.77;;;18.20;65.80;;;;;;5082395;28;20036;-35
2023/11/21 04:16:22;;;;;;;1.63;1.52;;;18.20;65.80;;;;;;5089008;28;20475;-35
2023/11/21 04:18:48;;;;;;;2.00;1.75;;;18.20;65.80;;;;;;5082311;28;20063;-34
2023/11/21 04:21:15;;;;;;;1.60;1.40;;;18.20;65.80;;;;;;5077587;28;20071;-35
2023/11/21 04:23:41;;;;;;;1.95;1.75;;;18.20;65.90;;;;;;5082593;28;20024;-35
2023/11/21 04:26:07;;;;;;;2.83;1.60;;;18.20;65.80;;;;;;5073982;28;20033;-35
2023/11/21 04:28:34;;;;;;;2.22;1.77;;;18.20;65.90;;;;;;5083185;28;20909;-35
2023/11/21 04:31:00;;;;;;;2.13;1.90;;;18.20;65.80;;;;;;5083378;28;20035;-35
2023/11/21 04:33:26;;;;;;;1.65;1.50;;;18.20;65.90;;;;;;5078301;28;20055;-35
2023/11/21 04:35:52;;;;;;;2.05;1.52;;;18.20;65.90;;;;;;5081078;28;20039;-35
2023/11/21 04:38:19;;;;;;;2.17;1.73;;;18.20;65.90;;;;;;5075662;28;20040;-35
2023/11/21 04:40:45;;;;;;;2.15;1.75;;;18.20;66.00;;;;;;5082034;28;20035;-35
2023/11/21 04:43:11;;;;;;;1.55;1.45;;;18.20;66.00;;;;;;5071893;28;20125;-35
2023/11/21 04:45:38;;;;;;;2.50;1.75;;;18.20;66.00;;;;;;5084987;28;20036;-41
2023/11/21 04:48:06;;;;;;;2.33;1.48;;;18.20;66.00;;;;;;5075358;28;20032;-36
2023/11/21 04:50:32;;;;;;;2.28;1.60;;;18.20;66.00;;;;;;5082326;28;20037;-36
2023/11/21 04:52:58;;;;;;;1.90;1.67;;;18.20;66.00;;;;;;5081693;28;20139;-36
2023/11/21 04:55:27;;;;;;;2.25;1.77;;;18.20;66.00;;;;;;5082488;28;20032;-36
2023/11/21 04:57:54;;;;;;;1.63;1.50;;;18.20;66.10;;;;;;5080665;28;20025;-36
2023/11/21 05:00:21;;;;;;;2.00;1.50;;;18.20;66.10;;;;;;5071961;28;20051;-36
2023/11/21 05:02:47;;;;;;;2.08;1.70;;;18.20;66.10;;;;;;5073314;28;20036;-35
2023/11/21 05:05:14;;;;;;;1.65;1.55;;;18.20;66.10;;;;;;5082876;28;20032;-36
2023/11/21 05:07:41;;;;;;;1.70;1.60;;;18.20;66.10;;;;;;5075219;28;20037;-36
2023/11/21 05:10:11;;;;;;;2.28;1.40;;;18.20;66.90;;;;;;5079174;28;20485;-36
2023/11/21 05:12:37;;;;;;;2.03;1.40;;;18.20;66.20;;;;;;5077618;28;20036;-36
2023/11/21 05:15:14;;;;;;;2.58;1.63;;;18.20;66.20;;;;;;5087877;28;20036;-36
2023/11/21 05:17:48;;;;;;;2.70;1.70;;;18.20;66.30;;;;;;5081612;28;20028;-36
2023/11/21 05:20:20;;;;;;;2.20;1.60;;;18.20;66.20;;;;;;5075148;28;20032;-36
2023/11/21 05:22:50;;;;;;;1.50;1.40;;;18.20;66.20;;;;;;5080446;28;20086;-36
2023/11/21 05:25:19;;;;;;;2.05;1.55;;;18.20;66.30;;;;;;5081534;28;20029;-36
2023/11/21 05:27:48;;;;;;;1.63;1.52;;;18.20;66.30;;;;;;5085608;28;20095;-41
2023/11/21 05:30:15;;;;;;;1.45;1.35;;;18.20;66.30;;;;;;5072491;28;20112;-35
2023/11/21 05:32:46;;;;;;;1.60;1.50;;;18.20;66.30;;;;;;5071873;28;20064;-35
2023/11/21 05:35:15;;;;;;;2.03;1.70;;;18.20;66.40;;;;;;5068456;28;20619;-35
2023/11/21 05:37:42;;;;;;;2.10;1.67;;;18.20;66.40;;;;;;5081570;28;20029;-36
2023/11/21 05:40:09;;;;;;;2.88;1.80;;;18.20;66.40;;;;;;5074826;28;20032;-36
2023/11/21 05:42:35;;;;;;;;;;;18.20;66.50;;;;;;5081671;28;20036;-36
2023/11/21 05:45:11;;;;;;;2.47;1.80;;;18.20;66.50;;;;;;5086017;28;19918;-35
2023/11/21 05:47:40;;;;;;;2.28;1.45;;;18.20;66.50;;;;;;5075082;28;20518;-36
2023/11/21 05:50:10;;;;;;;2.35;1.60;;;18.20;66.60;;;;;;5074126;28;20033;-35
2023/11/21 05:52:37;;;;;;;1.95;1.63;;;18.20;66.60;;;;;;5081938;28;20024;-35
2023/11/21 05:55:09;;;;;;;2.05;1.80;;;18.20;66.60;;;;;;5080291;28;20083;-36
2023/11/21 05:57:36;;;;;;;2.08;1.60;;;18.20;66.60;;;;;;5074980;28;20033;-35
2023/11/21 06:00:10;;;;;;;2.05;1.42;;;18.20;66.60;;;;;;5079735;28;20033;-36
2023/11/21 06:02:38;;;;;;;2.53;1.60;;;18.20;66.70;;;;;;5081462;28;20037;-36
2023/11/21 06:05:04;;;;;;;;;;;18.20;66.70;;;;;;5074535;28;20179;-36
2023/11/21 06:07:30;;;;;;;2.13;1.63;;;18.20;66.70;;;;;;5081531;28;19912;-36
2023/11/21 06:09:56;;;;;;;2.55;1.48;;;18.20;66.70;;;;;;5074392;28;20025;-36
2023/11/21 06:12:23;;;;;;;1.80;1.50;;;18.20;66.70;;;;;;5081258;28;20036;-35
2023/11/21 06:14:49;;;;;;;2.65;1.60;;;18.20;66.80;;;;;;5082600;28;20047;-35
2023/11/21 06:17:15;;;;;;;2.58;1.60;;;18.20;66.70;;;;;;5081674;28;20507;-36
2023/11/21 06:19:41;;;;;;;1.85;1.50;;;18.10;66.60;;;;;;5080935;28;20058;-36
2023/11/21 06:22:08;;;;;;;2.28;1.60;;;18.20;66.80;;;;;;5082679;28;20051;-36
2023/11/21 06:24:34;;;;;;;2.17;1.50;;;18.20;66.80;;;;;;5081902;28;20082;-36
2023/11/21 06:27:00;;;;;;;1.75;1.25;;;18.20;66.80;;;;;;5089970;28;20033;-36
2023/11/21 06:29:26;;;;;;;1.83;1.65;;;18.20;66.80;;;;;;5084728;28;20028;-36
2023/11/21 06:31:55;;;;;;;2.08;1.60;;;18.20;66.80;;;;;;5083284;28;20036;-35
2023/11/21 06:34:21;;;;;;;2.63;1.58;;;18.20;66.80;;;;;;5079086;28;20029;-36
2023/11/21 06:36:47;;;;;;;1.88;1.60;;;18.20;66.90;;;;;;5084345;28;20037;-36
2023/11/21 06:39:15;;;;;;;1.67;1.43;;;18.20;66.90;;;;;;5071624;28;20032;-36
2023/11/21 06:41:41;;;;;;;1.90;1.50;;;18.20;66.90;;;;;;5084485;28;20437;-36
2023/11/21 06:44:08;;;;;;;1.50;1.40;;;18.10;66.80;;;;;;5085343;28;20052;-35
2023/11/21 06:46:34;;;;;;;2.30;1.52;;;18.20;66.90;;;;;;5088285;28;20035;-36
2023/11/21 06:49:00;;;;;;;3.63;1.95;;;18.20;66.90;;;;;;5081758;28;20032;-36
2023/11/21 06:51:27;;;;;;;2.03;1.55;;;18.20;66.90;;;;;;5073449;28;20041;-37
2023/11/21 06:53:53;;;;;;;1.65;1.40;;;18.20;67.00;;;;;;5083260;28;20028;-36
2023/11/21 06:56:19;;;;;;;2.28;1.90;;;18.20;66.90;;;;;;5084529;28;20111;-35
2023/11/21 06:58:46;;;;;;;1.92;1.60;;;18.20;66.90;;;;;;5075285;28;20119;-36
2023/11/21 07:01:13;;;;;;;2.80;1.63;;;18.20;67.00;;;;;;5078536;28;20036;-35
2023/11/21 07:03:42;;;;;;;1.98;1.77;;;18.20;67.00;;;;;;5084156;28;20024;-36
2023/11/21 07:06:08;;;;;;;2.08;1.58;;;18.20;67.00;;;;;;5084756;28;20072;-36
2023/11/21 07:08:35;;;;;;;1.70;1.52;;;18.20;67.10;;;;;;5084794;28;20029;-36
2023/11/21 07:11:02;;;;;;;2.10;1.50;;;18.20;67.10;;;;;;5075056;28;20119;-35
2023/11/21 07:13:29;;;;;;;3.22;1.52;;;18.20;67.20;;;;;;5079632;28;20036;-35
2023/11/21 07:15:55;;;;;;;1.93;1.73;;;18.20;67.10;;;;;;5090142;28;20032;-35
2023/11/21 07:18:21;;;;;;;2.25;1.35;;;18.20;67.10;;;;;;5080905;28;20029;-36
2023/11/21 07:20:47;;;;;;;1.67;1.55;;;18.20;67.10;;;;;;5084526;28;20710;-36
2023/11/21 07:23:15;;;;;;;1.70;1.40;;;18.20;67.10;;;;;;5078353;28;20047;-35
2023/11/21 07:25:43;;;;;;;3.45;1.85;;;18.20;67.10;;;;;;5083469;28;20040;-35
2023/11/21 07:28:10;;;;;;;2.10;1.70;;;18.10;67.20;;;;;;5085663;28;20040;-36
2023/11/21 07:30:36;;;;;;;3.50;1.73;;;18.10;67.20;;;;;;5084031;28;20115;-35
2023/11/21 07:33:02;;;;;;;3.28;1.80;;;18.10;67.10;;;;;;5074281;28;20029;-35
2023/11/21 07:35:28;;;;;;;1.63;1.30;;;18.10;67.20;;;;;;5078043;28;20044;-35
2023/11/21 07:37:54;;;;;;;2.75;1.63;;;18.10;67.20;;;;;;5083116;28;20032;-35
2023/11/21 07:40:22;;;;;;;1.95;1.60;;;18.10;67.20;;;;;;5075986;28;20032;-35
2023/11/21 07:42:49;;;;;;;2.03;1.48;;;18.10;67.20;;;;;;5076333;28;20347;-36
2023/11/21 07:45:16;;;;;;;1.98;1.50;;;18.10;67.20;;;;;;5088382;28;20044;-36
2023/11/21 07:47:43;;;;;;;3.10;1.55;;;18.10;67.20;;;;;;5069569;28;20049;-36
2023/11/21 07:50:09;;;;;;;1.60;1.50;;;18.10;67.30;;;;;;5076175;28;20144;-36
2023/11/21 07:52:35;;;;;;;2.00;1.42;;;18.10;67.30;;;;;;5083723;28;20025;-35
2023/11/21 07:55:01;;;;;;;2.95;1.70;;;18.10;67.30;;;;;;5082472;28;20025;-36
2023/11/21 07:57:28;;;;;;;2.13;1.63;;;18.10;67.30;;;;;;5083496;28;20059;-36
2023/11/21 07:59:55;;;;;;;2.63;1.40;;;18.10;67.30;;;;;;5082763;28;20359;-35
2023/11/21 08:02:21;;;;;;;2.83;1.83;;;18.10;67.30;;;;;;5076483;28;20029;-35
2023/11/21 08:04:49;;;;;;;1.85;1.45;;;18.10;67.30;;;;;;5083097;28;20040;-36
2023/11/21 08:07:17;;;;;;;3.33;1.90;;;18.10;67.30;;;;;;5083474;28;20096;-36
2023/11/21 08:09:44;;;;;;;1.85;1.63;;;18.10;67.30;;;;;;5082267;28;20088;-36
2023/11/21 08:12:10;;;;;;;1.85;1.50;;;18.10;67.30;;;;;;5083434;28;20056;-36
2023/11/21 08:14:38;;;;;;;2.55;1.70;;;18.10;67.30;;;;;;5096291;28;20038;-36
2023/11/21 08:17:05;;;;;;;2.00;1.58;;;18.10;67.30;;;;;;5076072;28;20028;-35
2023/11/21 08:19:32;;;;;;;2.70;1.45;;;18.10;67.30;;;;;;5082800;28;20032;-36
2023/11/21 08:21:59;;;;;;;2.45;1.70;;;18.10;67.40;;;;;;5080538;28;21351;-36
2023/11/21 08:24:25;;;;;;;2.47;1.50;;;18.10;67.40;;;;;;5077532;28;20028;-36
2023/11/21 08:26:52;;;;;;;1.55;1.45;;;18.10;67.50;;;;;;5081719;28;20054;-35
2023/11/21 08:29:18;;;;;;;2.13;1.67;;;18.10;67.40;;;;;;5069836;28;20029;-35
2023/11/21 08:31:46;;;;;;;1.83;1.40;;;18.10;67.50;;;;;;5067285;28;20045;-35
2023/11/21 08:34:14;;;;;;;2.22;1.50;;;18.10;67.40;;;;;;5076106;28;20028;-35
2023/11/21 08:36:43;;;;;;;2.38;1.70;;;18.00;67.30;;;;;;5082986;28;20024;-36
2023/11/21 08:39:10;;;;;;;1.83;1.30;;;18.10;67.40;;;;;;5082178;28;20040;-36
2023/11/21 08:41:36;;;;;;;2.03;1.52;;;18.00;67.40;;;;;;5078365;28;20035;-35
2023/11/21 08:44:06;;;;;;;1.77;1.60;;;18.00;67.50;;;;;;5075923;28;20067;-35
2023/11/21 08:46:33;;;;;;;1.75;1.52;;;18.00;67.50;;;;;;5086544;28;20044;-35
2023/11/21 08:49:01;;;;;;;1.75;1.33;;;18.00;67.50;;;;;;5082078;28;20035;-36
2023/11/21 08:51:28;;;;;;;2.78;1.70;;;18.00;67.50;;;;;;5077193;28;20052;-35
2023/11/21 08:53:54;;;;;;;2.10;1.70;;;18.00;67.50;;;;;;5081952;28;20115;-36
2023/11/21 08:56:20;;;;;;;2.65;1.65;;;18.00;67.50;;;;;;5082430;28;20028;-35
2023/11/21 08:58:50;;;;;;;2.40;1.50;;;18.00;67.60;;;;;;5075077;28;20093;-35
2023/11/21 09:01:17;;;;;;;2.40;1.63;;;18.00;67.50;;;;;;5081762;28;20037;-35
2023/11/21 09:03:43;;;;;;;1.88;1.50;;;18.00;67.50;;;;;;5082079;28;20044;-35
2023/11/21 09:06:10;;;;;;;2.27;1.50;;;18.00;67.40;;;;;;5082315;28;20041;-36
2023/11/21 09:08:36;;;;;;;1.53;1.30;;;18.00;67.50;;;;;;5081890;28;20347;-35
2023/11/21 09:11:02;;;;;;;2.88;1.80;;;18.00;67.60;;;;;;5074261;28;20082;-35
2023/11/21 09:13:29;;;;;;;3.00;1.80;;;18.00;67.60;;;;;;5082238;28;20028;-34
2023/11/21 09:15:55;;;;;;;2.45;1.70;;;18.00;67.60;;;;;;5087826;28;20533;-34
2023/11/21 09:18:21;;;;;;;2.10;1.70;;;18.00;67.60;;;;;;5081306;28;20119;-35
2023/11/21 09:20:48;;;;;;;2.40;1.50;;;18.00;67.70;;;;;;5080612;28;20420;-35
2023/11/21 09:23:14;;;;;;;2.60;1.58;;;18.00;67.70;;;;;;5079608;28;20036;-35
2023/11/21 09:25:40;;;;;;;1.88;1.50;;;18.00;67.70;;;;;;5082471;28;20154;-36
2023/11/21 09:28:09;;;;;;;2.40;1.50;;;18.00;67.80;;;;;;5082268;28;20120;-35
2023/11/21 09:30:35;;;;;;;2.58;1.83;;;18.00;67.70;;;;;;5087356;28;20511;-35
2023/11/21 09:33:02;;;;;;;1.97;1.50;;;18.00;67.80;;;;;;5082238;28;20525;-35
2023/11/21 09:35:28;;;;;;;2.03;1.67;;;18.00;67.70;;;;;;5082193;28;20085;-35
2023/11/21 09:37:55;;;;;;;1.80;1.50;;;18.00;67.70;;;;;;5067316;28;20041;-35
2023/11/21 09:40:22;;;;;;;1.90;1.35;;;17.90;67.70;;;;;;5082218;28;20040;-35
2023/11/21 09:42:59;;;;;;;3.53;1.77;;;17.90;67.70;;;;;;5081514;28;20481;-35
2023/11/21 09:45:31;;;;;;;2.05;1.38;;;17.90;67.70;;;;;;5080265;28;20045;-35
2023/11/21 09:47:57;;;;;;;1.80;1.40;;;17.90;67.80;;;;;;5079356;28;20059;-35
2023/11/21 09:50:23;;;;;;;2.10;1.65;;;17.90;67.80;;;;;;5073435;28;20075;-35
2023/11/21 09:53:11;;;;;;;1.75;1.55;;;17.90;67.80;;;;;;5076297;28;20033;-34
2023/11/21 09:55:38;;;;;;;2.97;1.80;;;17.90;67.80;;;;;;5078532;28;20025;-34
2023/11/21 09:58:07;;;;;;;1.77;1.60;;;17.90;67.80;;;;;;5082006;28;20114;-35
2023/11/21 10:00:34;;;;;;;1.70;1.40;;;17.90;67.90;;;;;;5077052;28;20482;-34
2023/11/21 10:03:00;;;;;;;3.45;1.77;;;17.90;67.90;;;;;;5085109;28;20033;-34
2023/11/21 10:05:26;;;;;;;3.17;1.60;;;17.90;67.90;;;;;;5073749;28;20580;-34
2023/11/21 10:07:52;;;;;;;2.22;1.63;;;17.90;67.90;;;;;;5083835;28;20037;-35
2023/11/21 10:10:21;;;;;;;2.57;1.70;;;17.90;68.60;;;;;;5072774;28;20040;-34
2023/11/21 10:12:53;;;;;;;3.67;1.60;;;17.90;67.90;;;;;;5082965;28;20032;-34
2023/11/21 10:15:21;;;;;;;2.42;1.50;;;17.90;68.00;;;;;;5091674;28;20062;-34
2023/11/21 10:17:47;;;;;;;1.83;1.63;;;17.80;68.00;;;;;;5074387;28;20029;-34
2023/11/21 10:20:13;;;;;;;2.20;1.52;;;17.80;68.00;;;;;;5073658;28;20155;-34
2023/11/21 10:22:43;;;;;;;4.15;1.45;;;17.80;68.00;;;;;;5075079;28;20092;-34
2023/11/21 10:25:10;;;;;;;2.70;1.77;;;17.80;68.00;;;;;;5080322;28;20572;-35
2023/11/21 10:27:39;;;;;;;2.45;1.60;;;17.80;68.10;;;;;;5085762;28;20101;-34
2023/11/21 10:30:06;;;;;;;2.08;1.73;;;17.80;68.10;;;;;;5083521;28;20477;-35
2023/11/21 10:32:32;;;;;;;2.65;1.88;;;17.80;68.20;;;;;;5085390;28;20033;-34
2023/11/21 10:35:06;;;;;;;3.20;1.80;;;17.80;68.20;;;;;;5070674;28;20075;-35
2023/11/21 10:37:35;;;;;;;1.63;1.30;;;17.80;68.20;;;;;;5072130;28;20041;-34
2023/11/21 10:40:01;;;;;;;2.17;1.63;;;17.80;68.20;;;;;;5077546;28;20031;-34
2023/11/21 10:42:28;;;;;;;2.50;1.50;;;17.80;68.20;;;;;;5076666;28;20052;-34
2023/11/21 10:44:54;;;;;;;2.90;1.63;;;17.80;68.20;;;;;;5081087;28;20499;-35
2023/11/21 10:47:22;;;;;;;2.10;1.90;;;17.80;68.20;;;;;;5074248;28;20033;-34
2023/11/21 10:49:53;;;;;;;2.17;1.67;;;17.80;68.30;;;;;;5098271;28;20028;-35
2023/11/21 10:52:22;;;;;;;2.83;1.77;;;17.80;68.30;;;;;;5078178;28;20049;-35
2023/11/21 10:54:49;;;;;;;2.90;1.70;;;17.80;68.30;;;;;;5082342;28;20029;-34
2023/11/21 10:57:18;;;;;;;2.22;1.67;;;17.80;68.30;;;;;;5067281;28;20033;-34
2023/11/21 10:59:47;;;;;;;1.67;1.58;;;17.80;68.40;;;;;;5081259;28;20040;-34
2023/11/21 11:02:34;;;;;;;2.90;1.80;;;17.80;68.30;;;;;;5071498;28;20043;-34
2023/11/21 11:05:01;;;;;;;2.42;1.60;;;17.80;68.30;;;;;;5074676;28;20025;-34
2023/11/21 11:07:28;;;;;;;3.05;1.60;;;17.80;68.30;;;;;;5070621;28;20021;-34
2023/11/21 11:09:59;;;;;;;1.80;1.60;;;17.80;68.30;;;;;;5065096;28;20040;-35
2023/11/21 11:12:26;;;;;;;1.70;1.50;;;17.80;68.30;;;;;;5066185;28;20044;-35
2023/11/21 11:14:52;;;;;;;1.73;1.63;;;17.70;68.40;;;;;;5088035;28;20060;-34
2023/11/21 11:17:22;;;;;;;1.75;1.60;;;17.70;68.40;;;;;;5080210;28;20133;-34
2023/11/21 11:19:48;;;;;;;3.53;1.85;;;17.70;68.40;;;;;;5073239;28;20043;-35
2023/11/21 11:22:38;;;;;;;1.80;1.60;;;17.70;68.40;;;;;;5078672;28;20123;-34
2023/11/21 11:25:13;;;;;;;2.80;1.92;;;17.70;68.40;;;;;;5078174;28;20509;-34
2023/11/21 11:27:51;;;;;;;2.10;1.60;;;17.70;68.30;;;;;;5081149;28;20099;-35
2023/11/21 11:30:41;;;;;;;2.35;1.50;;;17.70;68.40;;;;;;5074931;28;20031;-35
2023/11/21 11:33:21;;;;;;;3.47;2.05;;;17.70;68.40;;;;;;5112337;28;20060;-35
2023/11/21 11:36:07;;;;;;;2.80;1.55;;;17.70;68.50;;;;;;5077205;28;20058;-35
2023/11/21 11:38:35;;;;;;;2.72;1.75;;;17.70;68.40;;;;;;5084413;28;20035;-34
2023/11/21 11:41:05;;;;;;;2.08;1.80;;;17.70;68.60;;;;;;5076953;28;20036;-34
2023/11/21 11:43:43;;;;;;;1.83;1.50;;;17.70;68.50;;;;;;5083429;28;20063;-35
2023/11/21 11:46:10;;;;;;;3.25;1.88;;;17.70;68.60;;;;;;5085198;28;20037;-34
2023/11/21 11:48:40;;;;;;;2.67;1.92;;;17.70;68.50;;;;;;5064948;28;20055;-34
2023/11/21 11:51:18;;;;;;;2.80;1.80;;;17.70;68.60;;;;;;5074568;28;20047;-34
2023/11/21 11:53:45;;;;;;;3.33;2.13;;;17.70;68.60;;;;;;5075421;28;20112;-34
2023/11/21 11:56:20;;;;;;;1.90;1.40;;;17.70;68.60;;;;;;5091695;28;20028;-34
2023/11/21 11:58:48;;;;;;;1.80;1.50;;;17.70;68.70;;;;;;5082926;28;20028;-34
2023/11/21 12:01:16;;;;;;;2.10;1.73;;;17.70;68.70;;;;;;5077033;28;20516;-35
2023/11/21 12:03:43;;;;;;;2.47;1.50;;;17.70;68.80;;;;;;5081520;28;20100;-35
2023/11/21 12:06:11;;;;;;;2.45;1.75;;;17.60;68.70;;;;;;5080807;28;20120;-35
2023/11/21 12:08:37;;;;;;;2.17;1.50;;;17.70;69.50;;;;;;5071154;28;20044;-35
2023/11/21 12:11:04;;;;;;;2.35;1.88;;;17.60;68.80;;;;;;5081506;28;20062;-34
2023/11/21 12:13:30;;;;;;;2.15;1.95;;;17.60;68.80;;;;;;5074781;28;20028;-35
2023/11/21 12:15:56;;;;;;;2.45;1.90;;;17.60;68.90;;;;;;5083916;28;20040;-35
2023/11/21 12:18:26;;;;;;;2.50;1.52;;;17.60;68.80;;;;;;5075687;28;20025;-34
2023/11/21 12:20:52;;;;;;;2.35;1.92;;;17.60;68.80;;;;;;5083242;28;20032;-34
2023/11/21 12:23:18;;;;;;;2.17;1.97;;;17.60;68.80;;;;;;5075932;28;20036;-34
2023/11/21 12:25:44;;;;;;;2.80;1.60;;;17.60;68.80;;;;;;5075441;28;20024;-34
2023/11/21 12:28:12;;;;;;;2.25;1.73;;;17.60;68.70;;;;;;5074305;28;20025;-34
2023/11/21 12:30:39;;;;;;;1.77;1.50;;;17.60;68.80;;;;;;5081745;28;20052;-34
2023/11/21 12:33:08;;;;;;;3.05;2.05;;;17.60;68.80;;;;;;5082237;28;20475;-34
2023/11/21 12:35:35;;;;;;;2.95;1.80;;;17.60;68.80;;;;;;5082417;28;20063;-34
2023/11/21 12:38:05;;;;;;;4.40;2.08;;;17.60;68.80;;;;;;5068333;28;20040;-34
2023/11/21 12:40:31;;;;;;;3.38;1.80;;;17.60;68.90;;;;;;5075424;28;20029;-34
2023/11/21 12:42:58;;;;;;;2.47;1.85;;;17.60;68.90;;;;;;5080967;28;20098;-34
2023/11/21 12:45:27;;;;;;;1.60;1.50;;;17.60;68.90;;;;;;5081963;28;20036;-34
2023/11/21 12:47:56;;;;;;;5.13;1.90;;;17.60;68.90;;;;;;5073323;28;20028;-34
2023/11/21 12:50:31;;;;;;;2.00;1.60;;;17.60;68.90;;;;;;5082353;28;20613;-35